KMRY/MRY METAR and TAF weather

Enter ICAO airport designator
Station Type Date Time Source
KMRY METAR 2024/04/15 09:01 UTC NOAA

KMRY 150901Z AUTO 30005KT 10SM BKN010 OVC015 11/09 A3015 RMK AO2 CIG 006V011 T01110094


Station Type Date Time Source
KMRY Decoded METAR 2024/04/15 09:01 UTC NOAA

MONTEREY PENINSULA AIRPORT, CA, United States (KMRY) 36-35N 121-51W 66M
Apr 15, 2024 - 05:01 AM EDT / 2024.04.15 0901 UTC
Wind: from the WNW (300 degrees) at 6 MPH (5 KT):0
Visibility: 10 mile(s):0
Sky conditions: overcast
Temperature: 52.0 F (11.1 C)
Dew Point: 48.9 F (9.4 C)
Relative Humidity: 89%
Pressure (altimeter): 30.15 in. Hg (1020 hPa)
ob: KMRY 150901Z AUTO 30005KT 10SM BKN010 OVC015 11/09 A3015 RMK AO2 CIG 006V011 T01110094
cycle: 9

Station Type Date Time Source
KMRY TAF 2024/04/15 09:06 UTC NOAA